sensor_id;sensor_type;location;lat;lon;timestamp;P1;durP1;ratioP1;P2;durP2;ratioP2
52440;SDS011;39611;46.062;8.950;2023-06-14T00:00:43;6.13;;;2.10;;
52440;SDS011;39611;46.062;8.950;2023-06-14T00:03:10;4.47;;;2.60;;
52440;SDS011;39611;46.062;8.950;2023-06-14T00:05:38;6.68;;;1.90;;
52440;SDS011;39611;46.062;8.950;2023-06-14T00:08:07;5.20;;;2.50;;
52440;SDS011;39611;46.062;8.950;2023-06-14T00:10:34;4.05;;;2.35;;
52440;SDS011;39611;46.062;8.950;2023-06-14T00:13:02;4.55;;;2.13;;
52440;SDS011;39611;46.062;8.950;2023-06-14T00:15:33;3.92;;;2.30;;
52440;SDS011;39611;46.062;8.950;2023-06-14T00:18:00;2.78;;;1.83;;
52440;SDS011;39611;46.062;8.950;2023-06-14T00:20:28;4.40;;;1.85;;
52440;SDS011;39611;46.062;8.950;2023-06-14T00:22:57;4.63;;;2.20;;
52440;SDS011;39611;46.062;8.950;2023-06-14T00:25:23;4.20;;;2.60;;
52440;SDS011;39611;46.062;8.950;2023-06-14T00:27:55;5.03;;;2.35;;
52440;SDS011;39611;46.062;8.950;2023-06-14T00:30:23;4.82;;;2.72;;
52440;SDS011;39611;46.062;8.950;2023-06-14T00:32:50;5.68;;;2.88;;
52440;SDS011;39611;46.062;8.950;2023-06-14T00:35:18;6.93;;;3.00;;
52440;SDS011;39611;46.062;8.950;2023-06-14T00:37:44;5.82;;;3.20;;
52440;SDS011;39611;46.062;8.950;2023-06-14T00:40:11;5.10;;;3.30;;
52440;SDS011;39611;46.062;8.950;2023-06-14T00:42:39;8.77;;;2.90;;
52440;SDS011;39611;46.062;8.950;2023-06-14T00:45:07;7.72;;;2.80;;
52440;SDS011;39611;46.062;8.950;2023-06-14T00:47:35;5.72;;;3.33;;
52440;SDS011;39611;46.062;8.950;2023-06-14T00:50:06;8.25;;;3.15;;
52440;SDS011;39611;46.062;8.950;2023-06-14T00:52:34;6.47;;;3.28;;
52440;SDS011;39611;46.062;8.950;2023-06-14T00:55:02;3.90;;;2.00;;
52440;SDS011;39611;46.062;8.950;2023-06-14T00:57:29;3.67;;;2.17;;
52440;SDS011;39611;46.062;8.950;2023-06-14T00:59:56;4.00;;;2.03;;
52440;SDS011;39611;46.062;8.950;2023-06-14T01:02:24;4.28;;;2.20;;
52440;SDS011;39611;46.062;8.950;2023-06-14T01:04:51;4.20;;;2.05;;
52440;SDS011;39611;46.062;8.950;2023-06-14T01:15:59;2.78;;;1.35;;
52440;SDS011;39611;46.062;8.950;2023-06-14T01:18:27;3.00;;;1.70;;
52440;SDS011;39611;46.062;8.950;2023-06-14T01:20:56;3.47;;;1.95;;
52440;SDS011;39611;46.062;8.950;2023-06-14T01:23:23;3.30;;;1.63;;
52440;SDS011;39611;46.062;8.950;2023-06-14T01:25:51;2.72;;;1.48;;
52440;SDS011;39611;46.062;8.950;2023-06-14T01:28:21;2.65;;;1.50;;
52440;SDS011;39611;46.062;8.950;2023-06-14T01:30:52;1.98;;;1.55;;
52440;SDS011;39611;46.062;8.950;2023-06-14T01:33:22;2.33;;;1.60;;
52440;SDS011;39611;46.062;8.950;2023-06-14T01:35:53;3.58;;;1.85;;
52440;SDS011;39611;46.062;8.950;2023-06-14T01:38:22;3.03;;;1.90;;
52440;SDS011;39611;46.062;8.950;2023-06-14T01:40:51;3.03;;;1.73;;
52440;SDS011;39611;46.062;8.950;2023-06-14T01:43:21;3.22;;;1.80;;
52440;SDS011;39611;46.062;8.950;2023-06-14T01:45:50;3.63;;;2.10;;
52440;SDS011;39611;46.062;8.950;2023-06-14T01:48:20;1.98;;;1.50;;
52440;SDS011;39611;46.062;8.950;2023-06-14T01:50:48;4.40;;;1.83;;
52440;SDS011;39611;46.062;8.950;2023-06-14T01:53:16;2.45;;;1.63;;
52440;SDS011;39611;46.062;8.950;2023-06-14T01:55:43;3.05;;;1.73;;
52440;SDS011;39611;46.062;8.950;2023-06-14T01:58:11;5.25;;;1.92;;
52440;SDS011;39611;46.062;8.950;2023-06-14T02:00:38;2.78;;;1.52;;
52440;SDS011;39611;46.062;8.950;2023-06-14T02:03:05;3.00;;;1.85;;
52440;SDS011;39611;46.062;8.950;2023-06-14T02:05:32;2.55;;;1.60;;
52440;SDS011;39611;46.062;8.950;2023-06-14T02:07:58;2.60;;;1.60;;
52440;SDS011;39611;46.062;8.950;2023-06-14T02:10:26;3.35;;;1.27;;
52440;SDS011;39611;46.062;8.950;2023-06-14T02:12:53;3.17;;;1.75;;
52440;SDS011;39611;46.062;8.950;2023-06-14T02:15:19;2.78;;;1.70;;
52440;SDS011;39611;46.062;8.950;2023-06-14T02:17:48;4.95;;;1.90;;
52440;SDS011;39611;46.062;8.950;2023-06-14T02:20:16;3.42;;;1.88;;
52440;SDS011;39611;46.062;8.950;2023-06-14T02:22:44;2.40;;;1.58;;
52440;SDS011;39611;46.062;8.950;2023-06-14T02:25:12;2.65;;;1.67;;
52440;SDS011;39611;46.062;8.950;2023-06-14T02:27:39;2.53;;;1.63;;
52440;SDS011;39611;46.062;8.950;2023-06-14T02:30:06;5.10;;;1.80;;
52440;SDS011;39611;46.062;8.950;2023-06-14T02:32:34;2.45;;;1.50;;
52440;SDS011;39611;46.062;8.950;2023-06-14T02:35:02;2.85;;;1.70;;
52440;SDS011;39611;46.062;8.950;2023-06-14T02:37:30;2.33;;;1.20;;
52440;SDS011;39611;46.062;8.950;2023-06-14T02:39:58;1.80;;;1.10;;
52440;SDS011;39611;46.062;8.950;2023-06-14T02:42:26;4.38;;;1.23;;
52440;SDS011;39611;46.062;8.950;2023-06-14T02:44:53;2.25;;;1.13;;
52440;SDS011;39611;46.062;8.950;2023-06-14T02:47:20;3.20;;;1.40;;
52440;SDS011;39611;46.062;8.950;2023-06-14T02:49:47;4.53;;;1.35;;
52440;SDS011;39611;46.062;8.950;2023-06-14T02:52:15;2.58;;;1.20;;
52440;SDS011;39611;46.062;8.950;2023-06-14T02:54:42;2.95;;;1.50;;
52440;SDS011;39611;46.062;8.950;2023-06-14T02:57:09;1.88;;;1.35;;
52440;SDS011;39611;46.062;8.950;2023-06-14T02:59:37;2.85;;;1.48;;
52440;SDS011;39611;46.062;8.950;2023-06-14T03:02:05;3.65;;;1.60;;
52440;SDS011;39611;46.062;8.950;2023-06-14T03:04:31;2.10;;;1.20;;
52440;SDS011;39611;46.062;8.950;2023-06-14T03:07:04;2.30;;;1.30;;
52440;SDS011;39611;46.062;8.950;2023-06-14T03:09:38;2.63;;;1.23;;
52440;SDS011;39611;46.062;8.950;2023-06-14T03:12:06;2.38;;;1.40;;
52440;SDS011;39611;46.062;8.950;2023-06-14T03:14:36;1.98;;;1.13;;
52440;SDS011;39611;46.062;8.950;2023-06-14T03:17:03;3.78;;;1.60;;
52440;SDS011;39611;46.062;8.950;2023-06-14T03:19:31;2.38;;;1.50;;
52440;SDS011;39611;46.062;8.950;2023-06-14T03:21:57;3.75;;;1.45;;
52440;SDS011;39611;46.062;8.950;2023-06-14T03:24:24;4.22;;;1.75;;
52440;SDS011;39611;46.062;8.950;2023-06-14T03:26:53;2.88;;;1.77;;
52440;SDS011;39611;46.062;8.950;2023-06-14T03:29:20;4.18;;;1.55;;
52440;SDS011;39611;46.062;8.950;2023-06-14T03:32:00;3.03;;;1.50;;
52440;SDS011;39611;46.062;8.950;2023-06-14T03:34:28;5.70;;;2.58;;
52440;SDS011;39611;46.062;8.950;2023-06-14T03:36:54;3.25;;;1.75;;
52440;SDS011;39611;46.062;8.950;2023-06-14T03:39:21;2.40;;;1.58;;
52440;SDS011;39611;46.062;8.950;2023-06-14T03:41:48;2.95;;;1.70;;
52440;SDS011;39611;46.062;8.950;2023-06-14T03:44:15;2.90;;;1.80;;
52440;SDS011;39611;46.062;8.950;2023-06-14T03:46:44;3.13;;;1.65;;
52440;SDS011;39611;46.062;8.950;2023-06-14T03:49:11;4.20;;;1.88;;
52440;SDS011;39611;46.062;8.950;2023-06-14T03:51:38;4.43;;;2.20;;
52440;SDS011;39611;46.062;8.950;2023-06-14T03:54:05;2.42;;;1.60;;
52440;SDS011;39611;46.062;8.950;2023-06-14T03:56:52;4.78;;;2.45;;
52440;SDS011;39611;46.062;8.950;2023-06-14T03:59:19;4.63;;;2.50;;
52440;SDS011;39611;46.062;8.950;2023-06-14T04:01:46;3.28;;;1.85;;
52440;SDS011;39611;46.062;8.950;2023-06-14T04:04:12;3.35;;;2.17;;
52440;SDS011;39611;46.062;8.950;2023-06-14T04:06:39;3.35;;;2.13;;
52440;SDS011;39611;46.062;8.950;2023-06-14T04:09:07;2.47;;;1.60;;
52440;SDS011;39611;46.062;8.950;2023-06-14T04:11:33;4.25;;;1.95;;
52440;SDS011;39611;46.062;8.950;2023-06-14T04:14:01;3.25;;;1.98;;
52440;SDS011;39611;46.062;8.950;2023-06-14T04:16:28;4.03;;;1.52;;
52440;SDS011;39611;46.062;8.950;2023-06-14T04:18:55;2.90;;;1.63;;
52440;SDS011;39611;46.062;8.950;2023-06-14T04:21:21;2.88;;;1.67;;
52440;SDS011;39611;46.062;8.950;2023-06-14T04:23:49;6.82;;;2.10;;
52440;SDS011;39611;46.062;8.950;2023-06-14T04:26:19;2.63;;;1.73;;
52440;SDS011;39611;46.062;8.950;2023-06-14T04:28:48;3.03;;;1.90;;
52440;SDS011;39611;46.062;8.950;2023-06-14T04:31:17;3.97;;;1.88;;
52440;SDS011;39611;46.062;8.950;2023-06-14T04:33:44;3.28;;;1.90;;
52440;SDS011;39611;46.062;8.950;2023-06-14T04:36:13;3.58;;;2.03;;
52440;SDS011;39611;46.062;8.950;2023-06-14T04:38:39;2.63;;;1.98;;
52440;SDS011;39611;46.062;8.950;2023-06-14T04:41:06;3.70;;;2.33;;
52440;SDS011;39611;46.062;8.950;2023-06-14T04:43:32;2.97;;;1.75;;
52440;SDS011;39611;46.062;8.950;2023-06-14T04:46:04;2.33;;;1.58;;
52440;SDS011;39611;46.062;8.950;2023-06-14T04:48:38;1.88;;;1.35;;
52440;SDS011;39611;46.062;8.950;2023-06-14T04:51:07;2.63;;;1.60;;
52440;SDS011;39611;46.062;8.950;2023-06-14T04:53:35;3.33;;;1.60;;
52440;SDS011;39611;46.062;8.950;2023-06-14T04:56:03;3.83;;;2.03;;
52440;SDS011;39611;46.062;8.950;2023-06-14T04:58:31;3.22;;;1.90;;
52440;SDS011;39611;46.062;8.950;2023-06-14T05:00:59;3.65;;;2.20;;
52440;SDS011;39611;46.062;8.950;2023-06-14T05:03:26;2.95;;;1.65;;
52440;SDS011;39611;46.062;8.950;2023-06-14T05:05:54;2.97;;;1.88;;
52440;SDS011;39611;46.062;8.950;2023-06-14T05:08:21;2.88;;;1.55;;
52440;SDS011;39611;46.062;8.950;2023-06-14T05:10:51;2.95;;;1.77;;
52440;SDS011;39611;46.062;8.950;2023-06-14T05:13:18;3.35;;;1.80;;
52440;SDS011;39611;46.062;8.950;2023-06-14T05:15:45;3.08;;;2.00;;
52440;SDS011;39611;46.062;8.950;2023-06-14T05:18:13;2.63;;;1.60;;
52440;SDS011;39611;46.062;8.950;2023-06-14T05:20:42;2.60;;;1.80;;
52440;SDS011;39611;46.062;8.950;2023-06-14T05:23:09;2.85;;;1.60;;
52440;SDS011;39611;46.062;8.950;2023-06-14T05:28:12;3.13;;;1.73;;
52440;SDS011;39611;46.062;8.950;2023-06-14T05:30:39;2.75;;;1.58;;
52440;SDS011;39611;46.062;8.950;2023-06-14T05:33:07;3.88;;;2.10;;
52440;SDS011;39611;46.062;8.950;2023-06-14T05:35:34;2.28;;;1.42;;
52440;SDS011;39611;46.062;8.950;2023-06-14T05:38:01;4.07;;;2.15;;
52440;SDS011;39611;46.062;8.950;2023-06-14T05:40:28;6.75;;;2.33;;
52440;SDS011;39611;46.062;8.950;2023-06-14T05:43:01;4.63;;;2.30;;
52440;SDS011;39611;46.062;8.950;2023-06-14T05:45:34;4.18;;;2.65;;
52440;SDS011;39611;46.062;8.950;2023-06-14T05:48:01;4.43;;;2.50;;
52440;SDS011;39611;46.062;8.950;2023-06-14T05:50:28;3.40;;;2.33;;
52440;SDS011;39611;46.062;8.950;2023-06-14T05:52:55;5.85;;;2.50;;
52440;SDS011;39611;46.062;8.950;2023-06-14T05:55:22;4.10;;;2.30;;
52440;SDS011;39611;46.062;8.950;2023-06-14T05:57:49;5.75;;;2.20;;
52440;SDS011;39611;46.062;8.950;2023-06-14T06:00:16;4.05;;;2.22;;
52440;SDS011;39611;46.062;8.950;2023-06-14T06:02:44;2.78;;;1.80;;
52440;SDS011;39611;46.062;8.950;2023-06-14T06:05:11;3.85;;;1.90;;
52440;SDS011;39611;46.062;8.950;2023-06-14T06:07:40;4.90;;;2.35;;
52440;SDS011;39611;46.062;8.950;2023-06-14T06:10:07;5.25;;;2.55;;
52440;SDS011;39611;46.062;8.950;2023-06-14T06:12:34;3.30;;;1.73;;
52440;SDS011;39611;46.062;8.950;2023-06-14T06:15:01;4.20;;;1.95;;
52440;SDS011;39611;46.062;8.950;2023-06-14T06:17:28;3.03;;;2.03;;
52440;SDS011;39611;46.062;8.950;2023-06-14T06:20:12;4.32;;;2.08;;
52440;SDS011;39611;46.062;8.950;2023-06-14T06:22:39;3.78;;;1.80;;
52440;SDS011;39611;46.062;8.950;2023-06-14T06:25:06;4.60;;;2.38;;
52440;SDS011;39611;46.062;8.950;2023-06-14T06:27:34;4.40;;;2.72;;
52440;SDS011;39611;46.062;8.950;2023-06-14T06:30:04;4.30;;;2.50;;
52440;SDS011;39611;46.062;8.950;2023-06-14T06:32:32;3.75;;;2.05;;
52440;SDS011;39611;46.062;8.950;2023-06-14T06:34:59;4.63;;;2.28;;
52440;SDS011;39611;46.062;8.950;2023-06-14T06:37:26;5.20;;;1.85;;
52440;SDS011;39611;46.062;8.950;2023-06-14T06:39:53;3.50;;;1.63;;
52440;SDS011;39611;46.062;8.950;2023-06-14T06:42:20;2.90;;;1.80;;
52440;SDS011;39611;46.062;8.950;2023-06-14T06:44:47;4.07;;;1.92;;
52440;SDS011;39611;46.062;8.950;2023-06-14T06:47:14;3.25;;;1.67;;
52440;SDS011;39611;46.062;8.950;2023-06-14T06:49:41;4.32;;;2.53;;
52440;SDS011;39611;46.062;8.950;2023-06-14T06:52:08;4.45;;;2.28;;
52440;SDS011;39611;46.062;8.950;2023-06-14T06:54:35;4.85;;;2.67;;
52440;SDS011;39611;46.062;8.950;2023-06-14T06:57:03;3.50;;;1.73;;
52440;SDS011;39611;46.062;8.950;2023-06-14T06:59:30;4.18;;;2.20;;
52440;SDS011;39611;46.062;8.950;2023-06-14T07:01:57;4.72;;;2.15;;
52440;SDS011;39611;46.062;8.950;2023-06-14T07:04:24;4.13;;;2.22;;
52440;SDS011;39611;46.062;8.950;2023-06-14T07:06:51;5.95;;;2.38;;
52440;SDS011;39611;46.062;8.950;2023-06-14T07:09:18;4.10;;;2.17;;
52440;SDS011;39611;46.062;8.950;2023-06-14T07:11:46;7.07;;;2.53;;
52440;SDS011;39611;46.062;8.950;2023-06-14T07:14:14;4.68;;;2.45;;
52440;SDS011;39611;46.062;8.950;2023-06-14T07:16:41;4.25;;;2.50;;
52440;SDS011;39611;46.062;8.950;2023-06-14T07:19:09;4.93;;;2.50;;
52440;SDS011;39611;46.062;8.950;2023-06-14T07:21:37;5.15;;;2.42;;
52440;SDS011;39611;46.062;8.950;2023-06-14T07:24:07;4.97;;;2.50;;
52440;SDS011;39611;46.062;8.950;2023-06-14T07:26:34;4.53;;;2.58;;
52440;SDS011;39611;46.062;8.950;2023-06-14T07:29:02;5.03;;;2.65;;
52440;SDS011;39611;46.062;8.950;2023-06-14T07:31:28;6.30;;;3.20;;
52440;SDS011;39611;46.062;8.950;2023-06-14T07:33:55;4.95;;;3.40;;
52440;SDS011;39611;46.062;8.950;2023-06-14T07:36:22;6.60;;;2.83;;
52440;SDS011;39611;46.062;8.950;2023-06-14T07:38:49;5.85;;;2.35;;
52440;SDS011;39611;46.062;8.950;2023-06-14T07:41:15;4.78;;;2.60;;
52440;SDS011;39611;46.062;8.950;2023-06-14T07:43:42;4.93;;;2.88;;
52440;SDS011;39611;46.062;8.950;2023-06-14T07:46:09;7.60;;;2.90;;
52440;SDS011;39611;46.062;8.950;2023-06-14T07:48:35;4.75;;;2.80;;
52440;SDS011;39611;46.062;8.950;2023-06-14T07:51:02;6.03;;;2.47;;
52440;SDS011;39611;46.062;8.950;2023-06-14T07:53:29;4.97;;;2.45;;
52440;SDS011;39611;46.062;8.950;2023-06-14T07:55:57;5.28;;;2.60;;
52440;SDS011;39611;46.062;8.950;2023-06-14T07:58:24;4.75;;;2.78;;
52440;SDS011;39611;46.062;8.950;2023-06-14T08:00:50;4.03;;;2.35;;
52440;SDS011;39611;46.062;8.950;2023-06-14T08:03:17;4.25;;;2.08;;
52440;SDS011;39611;46.062;8.950;2023-06-14T08:05:44;4.03;;;2.40;;
52440;SDS011;39611;46.062;8.950;2023-06-14T08:08:11;6.07;;;2.55;;
52440;SDS011;39611;46.062;8.950;2023-06-14T08:10:37;5.10;;;2.83;;
52440;SDS011;39611;46.062;8.950;2023-06-14T08:13:04;3.95;;;2.58;;
52440;SDS011;39611;46.062;8.950;2023-06-14T08:15:30;5.85;;;2.63;;
52440;SDS011;39611;46.062;8.950;2023-06-14T08:17:57;6.70;;;2.42;;
52440;SDS011;39611;46.062;8.950;2023-06-14T08:20:26;4.20;;;2.22;;
52440;SDS011;39611;46.062;8.950;2023-06-14T08:22:53;3.95;;;2.33;;
52440;SDS011;39611;46.062;8.950;2023-06-14T08:25:22;4.25;;;2.38;;
52440;SDS011;39611;46.062;8.950;2023-06-14T08:27:49;8.65;;;2.60;;
52440;SDS011;39611;46.062;8.950;2023-06-14T08:30:16;5.55;;;3.00;;
52440;SDS011;39611;46.062;8.950;2023-06-14T08:32:44;3.75;;;2.28;;
52440;SDS011;39611;46.062;8.950;2023-06-14T08:35:11;4.32;;;2.30;;
52440;SDS011;39611;46.062;8.950;2023-06-14T08:37:39;2.28;;;1.48;;
52440;SDS011;39611;46.062;8.950;2023-06-14T08:40:29;5.85;;;2.25;;
52440;SDS011;39611;46.062;8.950;2023-06-14T08:42:55;3.67;;;1.65;;
52440;SDS011;39611;46.062;8.950;2023-06-14T08:45:23;3.47;;;1.70;;
52440;SDS011;39611;46.062;8.950;2023-06-14T08:47:54;3.03;;;1.73;;
52440;SDS011;39611;46.062;8.950;2023-06-14T08:50:25;3.25;;;1.63;;
52440;SDS011;39611;46.062;8.950;2023-06-14T08:53:00;3.47;;;1.77;;
52440;SDS011;39611;46.062;8.950;2023-06-14T08:55:30;2.50;;;1.55;;
52440;SDS011;39611;46.062;8.950;2023-06-14T09:00:31;3.03;;;1.85;;
52440;SDS011;39611;46.062;8.950;2023-06-14T09:03:00;2.92;;;1.73;;
52440;SDS011;39611;46.062;8.950;2023-06-14T09:05:28;4.60;;;1.92;;
52440;SDS011;39611;46.062;8.950;2023-06-14T09:07:55;7.32;;;2.10;;
52440;SDS011;39611;46.062;8.950;2023-06-14T09:10:32;3.83;;;1.40;;
52440;SDS011;39611;46.062;8.950;2023-06-14T09:13:01;4.78;;;1.23;;
52440;SDS011;39611;46.062;8.950;2023-06-14T09:15:32;3.00;;;1.40;;
52440;SDS011;39611;46.062;8.950;2023-06-14T09:18:01;3.53;;;1.48;;
52440;SDS011;39611;46.062;8.950;2023-06-14T09:20:29;3.42;;;1.60;;
52440;SDS011;39611;46.062;8.950;2023-06-14T09:22:57;3.25;;;1.35;;
52440;SDS011;39611;46.062;8.950;2023-06-14T09:25:24;5.07;;;1.33;;
52440;SDS011;39611;46.062;8.950;2023-06-14T09:28:09;6.68;;;1.60;;
52440;SDS011;39611;46.062;8.950;2023-06-14T09:30:37;3.17;;;1.52;;
52440;SDS011;39611;46.062;8.950;2023-06-14T09:33:05;2.60;;;1.42;;
52440;SDS011;39611;46.062;8.950;2023-06-14T09:35:32;2.15;;;1.08;;
52440;SDS011;39611;46.062;8.950;2023-06-14T09:38:00;6.43;;;1.38;;
52440;SDS011;39611;46.062;8.950;2023-06-14T09:40:27;2.55;;;1.30;;
52440;SDS011;39611;46.062;8.950;2023-06-14T09:42:54;3.38;;;1.60;;
52440;SDS011;39611;46.062;8.950;2023-06-14T09:45:25;5.85;;;1.95;;
52440;SDS011;39611;46.062;8.950;2023-06-14T09:47:57;2.30;;;1.30;;
52440;SDS011;39611;46.062;8.950;2023-06-14T09:50:33;1.88;;;1.30;;
52440;SDS011;39611;46.062;8.950;2023-06-14T09:53:08;2.58;;;1.08;;
52440;SDS011;39611;46.062;8.950;2023-06-14T09:55:39;2.45;;;1.40;;
52440;SDS011;39611;46.062;8.950;2023-06-14T09:58:09;4.88;;;2.47;;
52440;SDS011;39611;46.062;8.950;2023-06-14T10:00:38;1.60;;;1.10;;
52440;SDS011;39611;46.062;8.950;2023-06-14T10:03:11;7.45;;;1.42;;
52440;SDS011;39611;46.062;8.950;2023-06-14T10:05:43;3.53;;;1.08;;
52440;SDS011;39611;46.062;8.950;2023-06-14T10:08:19;2.85;;;1.15;;
52440;SDS011;39611;46.062;8.950;2023-06-14T10:10:51;5.25;;;1.35;;
52440;SDS011;39611;46.062;8.950;2023-06-14T10:13:18;2.15;;;0.90;;
52440;SDS011;39611;46.062;8.950;2023-06-14T10:15:58;2.72;;;1.10;;
52440;SDS011;39611;46.062;8.950;2023-06-14T10:23:48;1.67;;;1.00;;
52440;SDS011;39611;46.062;8.950;2023-06-14T10:26:21;1.73;;;1.00;;
52440;SDS011;39611;46.062;8.950;2023-06-14T10:31:50;1.90;;;0.90;;
52440;SDS011;39611;46.062;8.950;2023-06-14T10:34:22;2.47;;;1.33;;
52440;SDS011;39611;46.062;8.950;2023-06-14T10:39:46;1.33;;;0.77;;
52440;SDS011;39611;46.062;8.950;2023-06-14T10:42:13;1.58;;;1.08;;
52440;SDS011;39611;46.062;8.950;2023-06-14T10:44:50;1.45;;;0.70;;
52440;SDS011;39611;46.062;8.950;2023-06-14T10:47:26;1.27;;;0.80;;
52440;SDS011;39611;46.062;8.950;2023-06-14T10:52:28;1.77;;;0.68;;
52440;SDS011;39611;46.062;8.950;2023-06-14T10:54:59;2.90;;;0.80;;
52440;SDS011;39611;46.062;8.950;2023-06-14T10:57:26;1.23;;;0.75;;
52440;SDS011;39611;46.062;8.950;2023-06-14T10:59:54;7.35;;;0.90;;
52440;SDS011;39611;46.062;8.950;2023-06-14T11:05:09;1.67;;;1.00;;
52440;SDS011;39611;46.062;8.950;2023-06-14T11:10:43;1.40;;;0.80;;
52440;SDS011;39611;46.062;8.950;2023-06-14T11:13:11;1.48;;;0.82;;
52440;SDS011;39611;46.062;8.950;2023-06-14T11:15:38;10.15;;;1.17;;
52440;SDS011;39611;46.062;8.950;2023-06-14T11:18:10;4.27;;;0.90;;
52440;SDS011;39611;46.062;8.950;2023-06-14T11:20:39;5.45;;;0.80;;
52440;SDS011;39611;46.062;8.950;2023-06-14T11:23:06;11.80;;;1.30;;
52440;SDS011;39611;46.062;8.950;2023-06-14T11:25:33;9.45;;;1.13;;
52440;SDS011;39611;46.062;8.950;2023-06-14T11:28:00;1.83;;;0.80;;
52440;SDS011;39611;46.062;8.950;2023-06-14T11:30:26;2.10;;;0.80;;
52440;SDS011;39611;46.062;8.950;2023-06-14T11:32:53;1.13;;;0.70;;
52440;SDS011;39611;46.062;8.950;2023-06-14T11:35:24;2.60;;;0.80;;
52440;SDS011;39611;46.062;8.950;2023-06-14T11:37:55;2.67;;;1.05;;
52440;SDS011;39611;46.062;8.950;2023-06-14T11:40:23;6.57;;;1.45;;
52440;SDS011;39611;46.062;8.950;2023-06-14T11:42:57;2.20;;;0.90;;
52440;SDS011;39611;46.062;8.950;2023-06-14T11:45:28;2.58;;;1.08;;
52440;SDS011;39611;46.062;8.950;2023-06-14T11:47:56;6.07;;;1.17;;
52440;SDS011;39611;46.062;8.950;2023-06-14T11:50:26;8.88;;;1.27;;
52440;SDS011;39611;46.062;8.950;2023-06-14T11:52:57;1.70;;;1.08;;
52440;SDS011;39611;46.062;8.950;2023-06-14T11:55:37;9.57;;;2.05;;
52440;SDS011;39611;46.062;8.950;2023-06-14T11:58:05;2.22;;;1.20;;
52440;SDS011;39611;46.062;8.950;2023-06-14T12:00:32;1.27;;;0.77;;
52440;SDS011;39611;46.062;8.950;2023-06-14T12:03:01;2.03;;;1.10;;
52440;SDS011;39611;46.062;8.950;2023-06-14T12:05:27;4.45;;;0.95;;
52440;SDS011;39611;46.062;8.950;2023-06-14T12:07:58;1.45;;;0.82;;
52440;SDS011;39611;46.062;8.950;2023-06-14T12:10:26;1.77;;;0.90;;
52440;SDS011;39611;46.062;8.950;2023-06-14T12:12:56;1.42;;;0.90;;
52440;SDS011;39611;46.062;8.950;2023-06-14T12:15:27;2.03;;;0.90;;
52440;SDS011;39611;46.062;8.950;2023-06-14T12:17:55;2.63;;;1.15;;
52440;SDS011;39611;46.062;8.950;2023-06-14T12:20:22;2.10;;;1.00;;
52440;SDS011;39611;46.062;8.950;2023-06-14T12:22:50;2.72;;;1.50;;
52440;SDS011;39611;46.062;8.950;2023-06-14T12:25:23;1.10;;;0.77;;
52440;SDS011;39611;46.062;8.950;2023-06-14T12:28:08;1.45;;;1.10;;
52440;SDS011;39611;46.062;8.950;2023-06-14T12:30:35;0.95;;;0.70;;
52440;SDS011;39611;46.062;8.950;2023-06-14T12:33:03;0.90;;;0.73;;
52440;SDS011;39611;46.062;8.950;2023-06-14T12:35:30;1.88;;;0.90;;
52440;SDS011;39611;46.062;8.950;2023-06-14T12:37:57;3.83;;;1.20;;
52440;SDS011;39611;46.062;8.950;2023-06-14T12:40:24;1.67;;;0.88;;
52440;SDS011;39611;46.062;8.950;2023-06-14T12:42:50;2.10;;;1.08;;
52440;SDS011;39611;46.062;8.950;2023-06-14T12:45:16;2.60;;;1.20;;
52440;SDS011;39611;46.062;8.950;2023-06-14T12:47:44;1.85;;;1.17;;
52440;SDS011;39611;46.062;8.950;2023-06-14T12:50:10;2.58;;;1.20;;
52440;SDS011;39611;46.062;8.950;2023-06-14T12:52:37;3.97;;;0.90;;
52440;SDS011;39611;46.062;8.950;2023-06-14T12:55:03;2.60;;;1.27;;
52440;SDS011;39611;46.062;8.950;2023-06-14T12:57:30;2.38;;;1.23;;
52440;SDS011;39611;46.062;8.950;2023-06-14T12:59:59;1.75;;;1.10;;
52440;SDS011;39611;46.062;8.950;2023-06-14T13:02:26;1.75;;;1.23;;
52440;SDS011;39611;46.062;8.950;2023-06-14T13:04:53;4.97;;;1.10;;
52440;SDS011;39611;46.062;8.950;2023-06-14T13:07:19;7.90;;;1.42;;
52440;SDS011;39611;46.062;8.950;2023-06-14T13:09:46;1.88;;;1.17;;
52440;SDS011;39611;46.062;8.950;2023-06-14T13:12:13;1.95;;;1.17;;
52440;SDS011;39611;46.062;8.950;2023-06-14T13:14:39;2.75;;;1.17;;
52440;SDS011;39611;46.062;8.950;2023-06-14T13:17:10;2.38;;;1.20;;
52440;SDS011;39611;46.062;8.950;2023-06-14T13:19:37;1.92;;;1.20;;
52440;SDS011;39611;46.062;8.950;2023-06-14T13:22:04;2.78;;;1.05;;
52440;SDS011;39611;46.062;8.950;2023-06-14T13:24:31;1.92;;;1.08;;
52440;SDS011;39611;46.062;8.950;2023-06-14T13:26:58;2.55;;;1.35;;
52440;SDS011;39611;46.062;8.950;2023-06-14T13:29:25;2.67;;;1.40;;
52440;SDS011;39611;46.062;8.950;2023-06-14T13:31:53;2.90;;;1.65;;
52440;SDS011;39611;46.062;8.950;2023-06-14T13:34:20;2.45;;;1.10;;
52440;SDS011;39611;46.062;8.950;2023-06-14T13:36:47;2.38;;;1.40;;
52440;SDS011;39611;46.062;8.950;2023-06-14T13:39:15;3.10;;;1.20;;
52440;SDS011;39611;46.062;8.950;2023-06-14T13:41:42;2.53;;;1.33;;
52440;SDS011;39611;46.062;8.950;2023-06-14T13:44:08;2.50;;;1.33;;
52440;SDS011;39611;46.062;8.950;2023-06-14T13:46:39;2.25;;;1.10;;
52440;SDS011;39611;46.062;8.950;2023-06-14T13:49:06;3.33;;;1.15;;
52440;SDS011;39611;46.062;8.950;2023-06-14T13:51:33;2.67;;;1.20;;
52440;SDS011;39611;46.062;8.950;2023-06-14T13:54:01;1.42;;;0.93;;
52440;SDS011;39611;46.062;8.950;2023-06-14T13:56:28;3.83;;;1.42;;
52440;SDS011;39611;46.062;8.950;2023-06-14T13:58:56;3.28;;;1.55;;
52440;SDS011;39611;46.062;8.950;2023-06-14T14:01:23;2.47;;;1.45;;
52440;SDS011;39611;46.062;8.950;2023-06-14T14:03:52;2.03;;;1.25;;
52440;SDS011;39611;46.062;8.950;2023-06-14T14:06:19;4.72;;;1.40;;
52440;SDS011;39611;46.062;8.950;2023-06-14T14:08:45;2.88;;;1.50;;
52440;SDS011;39611;46.062;8.950;2023-06-14T14:11:12;4.43;;;1.38;;
52440;SDS011;39611;46.062;8.950;2023-06-14T14:13:39;2.42;;;1.52;;
52440;SDS011;39611;46.062;8.950;2023-06-14T14:16:07;6.15;;;2.00;;
52440;SDS011;39611;46.062;8.950;2023-06-14T14:18:34;4.65;;;1.55;;
52440;SDS011;39611;46.062;8.950;2023-06-14T14:21:02;1.40;;;1.15;;
52440;SDS011;39611;46.062;8.950;2023-06-14T14:23:29;6.18;;;1.90;;
52440;SDS011;39611;46.062;8.950;2023-06-14T14:25:56;3.38;;;1.67;;
52440;SDS011;39611;46.062;8.950;2023-06-14T14:28:23;3.67;;;1.70;;
52440;SDS011;39611;46.062;8.950;2023-06-14T14:30:51;3.78;;;1.40;;
52440;SDS011;39611;46.062;8.950;2023-06-14T14:33:20;2.65;;;1.77;;
52440;SDS011;39611;46.062;8.950;2023-06-14T14:35:47;3.95;;;1.83;;
52440;SDS011;39611;46.062;8.950;2023-06-14T14:38:14;2.53;;;1.45;;
52440;SDS011;39611;46.062;8.950;2023-06-14T14:40:44;2.50;;;1.70;;
52440;SDS011;39611;46.062;8.950;2023-06-14T14:43:11;3.15;;;1.70;;
52440;SDS011;39611;46.062;8.950;2023-06-14T14:45:39;2.92;;;1.50;;
52440;SDS011;39611;46.062;8.950;2023-06-14T14:48:06;4.45;;;1.58;;
52440;SDS011;39611;46.062;8.950;2023-06-14T14:50:33;3.05;;;1.67;;
52440;SDS011;39611;46.062;8.950;2023-06-14T14:53:00;2.10;;;1.38;;
52440;SDS011;39611;46.062;8.950;2023-06-14T14:55:28;2.55;;;1.63;;
52440;SDS011;39611;46.062;8.950;2023-06-14T14:57:55;2.97;;;1.50;;
52440;SDS011;39611;46.062;8.950;2023-06-14T15:00:22;4.07;;;2.35;;
52440;SDS011;39611;46.062;8.950;2023-06-14T15:02:50;5.90;;;1.92;;
52440;SDS011;39611;46.062;8.950;2023-06-14T15:05:17;5.10;;;2.00;;
52440;SDS011;39611;46.062;8.950;2023-06-14T15:07:45;5.28;;;1.60;;
52440;SDS011;39611;46.062;8.950;2023-06-14T15:10:12;2.08;;;1.55;;
52440;SDS011;39611;46.062;8.950;2023-06-14T15:12:39;2.55;;;1.80;;
52440;SDS011;39611;46.062;8.950;2023-06-14T15:15:07;3.60;;;1.70;;
52440;SDS011;39611;46.062;8.950;2023-06-14T15:17:35;3.35;;;1.67;;
52440;SDS011;39611;46.062;8.950;2023-06-14T15:20:03;1.95;;;1.30;;
52440;SDS011;39611;46.062;8.950;2023-06-14T15:22:32;3.35;;;1.73;;
52440;SDS011;39611;46.062;8.950;2023-06-14T15:25:00;1.92;;;1.33;;
52440;SDS011;39611;46.062;8.950;2023-06-14T15:27:27;2.13;;;1.35;;